Alpine Haven, Vermont
Current Conditions -  °F | °C
As of 2:55 AM on Saturday 25 Oct 2014 (Local Time) from KEFK Reporting Station
Clear Clear  
Wind Chill: 33°   Ceiling: Unl
Heat Index: 33°   Visibility: 10mi
Dew Point: 32°   Wind: 0mph
Humidity: 98%   Direction: NA
Pressure: 29.77"   Gusts: NA
Location:  44.8557°N, 72.6016°W
Report Text: KEFK 250655Z AUTO 00000KT 10SM CLR 01/00 A2977 RMK AO2 T00050002
Loading
Personal Weather Stations






























Interactive Weather Map
Tropical Storm Tracking
New forecast layout! Learn more

10-Day Weather Forecast

Advertisements
Track Severe Weather on mobile